sensor_id;sensor_type;location;lat;lon;timestamp;pressure;altitude;pressure_sealevel;temperature;humidity
6942;BME280;3510;43.200;27.920;2023-03-29T00:01:10;101093.47;;;11.22;46.09
6942;BME280;3510;43.200;27.920;2023-03-29T00:03:37;101095.84;;;11.50;46.64
6942;BME280;3510;43.200;27.920;2023-03-29T00:06:08;101087.66;;;11.52;46.43
6942;BME280;3510;43.200;27.920;2023-03-29T00:08:39;101098.78;;;11.65;46.50
6942;BME280;3510;43.200;27.920;2023-03-29T00:11:07;101095.28;;;11.33;47.46
6942;BME280;3510;43.200;27.920;2023-03-29T00:13:36;101102.53;;;11.59;47.08
6942;BME280;3510;43.200;27.920;2023-03-29T00:16:04;101105.66;;;12.27;45.20
6942;BME280;3510;43.200;27.920;2023-03-29T00:18:31;101105.59;;;11.66;45.82
6942;BME280;3510;43.200;27.920;2023-03-29T00:20:57;101112.88;;;12.02;45.23
6942;BME280;3510;43.200;27.920;2023-03-29T00:23:25;101125.22;;;11.99;45.13
6942;BME280;3510;43.200;27.920;2023-03-29T00:25:51;101114.56;;;11.33;46.02
6942;BME280;3510;43.200;27.920;2023-03-29T00:28:20;101120.47;;;11.33;45.76
6942;BME280;3510;43.200;27.920;2023-03-29T00:30:46;101118.00;;;11.14;45.85
6942;BME280;3510;43.200;27.920;2023-03-29T00:33:14;101117.66;;;11.99;44.74
6942;BME280;3510;43.200;27.920;2023-03-29T00:35:43;101124.69;;;11.93;44.33
6942;BME280;3510;43.200;27.920;2023-03-29T00:38:10;101122.50;;;11.27;45.92
6942;BME280;3510;43.200;27.920;2023-03-29T00:40:39;101129.28;;;11.28;45.74
6942;BME280;3510;43.200;27.920;2023-03-29T00:43:08;101126.44;;;11.94;44.45
6942;BME280;3510;43.200;27.920;2023-03-29T00:45:36;101126.13;;;11.70;45.22
6942;BME280;3510;43.200;27.920;2023-03-29T00:48:03;101124.84;;;11.94;44.48
6942;BME280;3510;43.200;27.920;2023-03-29T00:50:32;101129.06;;;11.46;45.57
6942;BME280;3510;43.200;27.920;2023-03-29T00:53:02;101133.56;;;11.29;45.65
6942;BME280;3510;43.200;27.920;2023-03-29T00:55:31;101129.56;;;11.31;45.79
6942;BME280;3510;43.200;27.920;2023-03-29T00:58:00;101131.28;;;11.22;46.09
6942;BME280;3510;43.200;27.920;2023-03-29T01:00:30;101131.97;;;11.11;46.70
6942;BME280;3510;43.200;27.920;2023-03-29T01:03:01;101138.53;;;11.48;46.14
6942;BME280;3510;43.200;27.920;2023-03-29T01:05:31;101143.63;;;11.00;47.16
6942;BME280;3510;43.200;27.920;2023-03-29T01:08:04;101146.53;;;11.05;47.54
6942;BME280;3510;43.200;27.920;2023-03-29T01:10:36;101104.41;;;10.64;48.05
6942;BME280;3510;43.200;27.920;2023-03-29T01:13:07;101145.59;;;11.42;46.70
6942;BME280;3510;43.200;27.920;2023-03-29T01:15:38;101146.00;;;11.47;46.25
6942;BME280;3510;43.200;27.920;2023-03-29T01:18:08;101152.00;;;11.38;46.74
6942;BME280;3510;43.200;27.920;2023-03-29T01:20:45;101158.91;;;10.83;47.86
6942;BME280;3510;43.200;27.920;2023-03-29T01:23:31;101126.50;;;10.77;46.90
6942;BME280;3510;43.200;27.920;2023-03-29T01:26:10;101155.63;;;11.03;46.51
6942;BME280;3510;43.200;27.920;2023-03-29T01:28:47;101119.97;;;11.27;45.85
6942;BME280;3510;43.200;27.920;2023-03-29T01:31:19;101155.56;;;11.51;46.08
6942;BME280;3510;43.200;27.920;2023-03-29T01:33:50;101160.97;;;11.16;46.38
6942;BME280;3510;43.200;27.920;2023-03-29T01:36:22;101156.63;;;11.34;45.95
6942;BME280;3510;43.200;27.920;2023-03-29T01:38:55;101160.00;;;11.24;46.03
6942;BME280;3510;43.200;27.920;2023-03-29T01:41:27;101164.84;;;11.31;45.50
6942;BME280;3510;43.200;27.920;2023-03-29T01:44:05;101170.84;;;10.48;46.91
6942;BME280;3510;43.200;27.920;2023-03-29T01:46:38;101158.59;;;11.18;45.63
6942;BME280;3510;43.200;27.920;2023-03-29T01:49:13;101163.59;;;11.36;44.79
6942;BME280;3510;43.200;27.920;2023-03-29T01:51:44;101152.34;;;11.33;44.69
6942;BME280;3510;43.200;27.920;2023-03-29T01:54:16;101178.81;;;10.71;45.63
6942;BME280;3510;43.200;27.920;2023-03-29T01:56:46;101157.16;;;11.69;43.66
6942;BME280;3510;43.200;27.920;2023-03-29T01:59:18;101176.94;;;10.87;44.94
6942;BME280;3510;43.200;27.920;2023-03-29T02:01:49;101101.94;;;10.56;44.35
6942;BME280;3510;43.200;27.920;2023-03-29T02:04:21;101167.56;;;11.24;44.11
6942;BME280;3510;43.200;27.920;2023-03-29T02:06:50;101151.97;;;10.80;44.47
6942;BME280;3510;43.200;27.920;2023-03-29T02:09:19;101177.28;;;11.30;44.17
6942;BME280;3510;43.200;27.920;2023-03-29T02:11:46;101183.03;;;10.62;44.87
6942;BME280;3510;43.200;27.920;2023-03-29T02:14:14;101186.78;;;10.95;44.69
6942;BME280;3510;43.200;27.920;2023-03-29T02:16:43;101179.41;;;11.25;44.02
6942;BME280;3510;43.200;27.920;2023-03-29T02:19:11;101181.38;;;11.19;44.42
6942;BME280;3510;43.200;27.920;2023-03-29T02:21:46;101147.91;;;11.20;43.45
6942;BME280;3510;43.200;27.920;2023-03-29T02:24:17;101187.94;;;11.17;43.71
6942;BME280;3510;43.200;27.920;2023-03-29T02:26:45;101192.34;;;11.20;43.75
6942;BME280;3510;43.200;27.920;2023-03-29T02:29:12;101180.72;;;10.93;43.52
6942;BME280;3510;43.200;27.920;2023-03-29T02:31:43;101201.34;;;10.88;44.16
6942;BME280;3510;43.200;27.920;2023-03-29T02:34:16;101192.50;;;10.64;44.56
6942;BME280;3510;43.200;27.920;2023-03-29T02:36:47;101212.13;;;10.50;44.58
6942;BME280;3510;43.200;27.920;2023-03-29T02:39:16;101209.22;;;10.64;44.50
6942;BME280;3510;43.200;27.920;2023-03-29T02:41:45;101217.47;;;10.72;44.66
6942;BME280;3510;43.200;27.920;2023-03-29T02:44:15;101212.38;;;10.53;44.65
6942;BME280;3510;43.200;27.920;2023-03-29T02:46:46;101218.28;;;11.00;43.94
6942;BME280;3510;43.200;27.920;2023-03-29T02:49:15;101222.03;;;10.21;45.13
6942;BME280;3510;43.200;27.920;2023-03-29T02:51:42;101213.72;;;10.22;45.65
6942;BME280;3510;43.200;27.920;2023-03-29T02:54:14;101197.41;;;10.35;44.91
6942;BME280;3510;43.200;27.920;2023-03-29T02:56:43;101224.38;;;10.19;45.48
6942;BME280;3510;43.200;27.920;2023-03-29T02:59:10;101229.78;;;10.41;44.84
6942;BME280;3510;43.200;27.920;2023-03-29T03:01:38;101226.22;;;9.58;45.94
6942;BME280;3510;43.200;27.920;2023-03-29T03:04:08;101225.56;;;9.86;45.93
6942;BME280;3510;43.200;27.920;2023-03-29T03:06:35;101221.88;;;9.83;45.49
6942;BME280;3510;43.200;27.920;2023-03-29T03:09:01;101230.16;;;9.73;45.92
6942;BME280;3510;43.200;27.920;2023-03-29T03:11:28;101238.59;;;9.56;46.55
6942;BME280;3510;43.200;27.920;2023-03-29T03:13:56;101247.03;;;9.65;46.18
6942;BME280;3510;43.200;27.920;2023-03-29T03:16:24;101215.47;;;9.24;46.24
6942;BME280;3510;43.200;27.920;2023-03-29T03:18:52;101228.09;;;9.69;46.17
6942;BME280;3510;43.200;27.920;2023-03-29T03:21:53;101246.44;;;9.59;46.26
6942;BME280;3510;43.200;27.920;2023-03-29T03:24:21;101249.84;;;9.68;46.34
6942;BME280;3510;43.200;27.920;2023-03-29T03:26:48;101244.19;;;9.71;46.28
6942;BME280;3510;43.200;27.920;2023-03-29T03:29:14;101174.38;;;9.41;46.12
6942;BME280;3510;43.200;27.920;2023-03-29T03:31:41;101236.06;;;9.74;45.77
6942;BME280;3510;43.200;27.920;2023-03-29T03:34:09;101248.56;;;9.46;46.28
6942;BME280;3510;43.200;27.920;2023-03-29T03:36:37;101248.44;;;9.89;45.60
6942;BME280;3510;43.200;27.920;2023-03-29T03:39:05;101253.63;;;9.82;46.19
6942;BME280;3510;43.200;27.920;2023-03-29T03:41:32;101242.03;;;9.22;46.71
6942;BME280;3510;43.200;27.920;2023-03-29T03:43:59;101263.31;;;9.34;46.85
6942;BME280;3510;43.200;27.920;2023-03-29T03:46:26;101261.84;;;9.54;46.29
6942;BME280;3510;43.200;27.920;2023-03-29T03:48:53;101233.66;;;9.13;47.12
6942;BME280;3510;43.200;27.920;2023-03-29T03:51:19;101258.28;;;9.34;46.96
6942;BME280;3510;43.200;27.920;2023-03-29T03:53:46;101249.59;;;9.13;47.39
6942;BME280;3510;43.200;27.920;2023-03-29T03:56:14;101251.66;;;9.09;47.46
6942;BME280;3510;43.200;27.920;2023-03-29T03:58:42;101214.44;;;8.87;47.28
6942;BME280;3510;43.200;27.920;2023-03-29T04:01:09;101251.22;;;9.39;46.73
6942;BME280;3510;43.200;27.920;2023-03-29T04:03:36;101191.53;;;8.67;47.48
6942;BME280;3510;43.200;27.920;2023-03-29T04:06:04;101261.41;;;9.06;47.25
6942;BME280;3510;43.200;27.920;2023-03-29T04:08:31;101263.31;;;9.00;47.41
6942;BME280;3510;43.200;27.920;2023-03-29T04:10:58;101217.25;;;8.90;46.91
6942;BME280;3510;43.200;27.920;2023-03-29T04:13:27;101277.19;;;9.22;47.51
6942;BME280;3510;43.200;27.920;2023-03-29T04:15:54;101247.34;;;9.08;47.49
6942;BME280;3510;43.200;27.920;2023-03-29T04:18:22;101269.06;;;8.99;47.90
6942;BME280;3510;43.200;27.920;2023-03-29T04:20:49;101267.44;;;8.90;48.01
6942;BME280;3510;43.200;27.920;2023-03-29T04:23:16;101282.19;;;9.05;47.28
6942;BME280;3510;43.200;27.920;2023-03-29T04:25:43;101274.34;;;8.93;47.80
6942;BME280;3510;43.200;27.920;2023-03-29T04:28:10;101289.84;;;8.80;48.13
6942;BME280;3510;43.200;27.920;2023-03-29T04:30:40;101235.53;;;8.89;47.83
6942;BME280;3510;43.200;27.920;2023-03-29T04:33:08;101254.03;;;8.39;48.15
6942;BME280;3510;43.200;27.920;2023-03-29T04:35:34;101311.59;;;9.23;47.33
6942;BME280;3510;43.200;27.920;2023-03-29T04:38:01;101297.69;;;8.92;47.98
6942;BME280;3510;43.200;27.920;2023-03-29T04:40:28;101274.25;;;9.09;47.56
6942;BME280;3510;43.200;27.920;2023-03-29T04:42:55;101306.28;;;9.03;47.88
6942;BME280;3510;43.200;27.920;2023-03-29T04:45:22;101300.97;;;9.08;47.18
6942;BME280;3510;43.200;27.920;2023-03-29T04:47:51;101305.78;;;8.72;48.55
6942;BME280;3510;43.200;27.920;2023-03-29T04:50:18;101326.38;;;9.03;48.08
6942;BME280;3510;43.200;27.920;2023-03-29T04:52:45;101323.81;;;8.85;47.81
6942;BME280;3510;43.200;27.920;2023-03-29T04:55:11;101324.88;;;9.05;47.94
6942;BME280;3510;43.200;27.920;2023-03-29T04:57:38;101328.31;;;9.23;47.29
6942;BME280;3510;43.200;27.920;2023-03-29T05:00:06;101336.72;;;9.06;47.41
6942;BME280;3510;43.200;27.920;2023-03-29T05:02:40;101337.16;;;9.02;47.59
6942;BME280;3510;43.200;27.920;2023-03-29T05:05:08;101333.44;;;8.98;46.96
6942;BME280;3510;43.200;27.920;2023-03-29T05:07:36;101316.19;;;9.01;47.26
6942;BME280;3510;43.200;27.920;2023-03-29T05:10:04;101268.94;;;9.14;46.28
6942;BME280;3510;43.200;27.920;2023-03-29T05:12:31;101357.28;;;9.62;46.32
6942;BME280;3510;43.200;27.920;2023-03-29T05:15:01;101346.94;;;9.51;46.07
6942;BME280;3510;43.200;27.920;2023-03-29T05:17:27;101335.91;;;8.89;46.68
6942;BME280;3510;43.200;27.920;2023-03-29T05:19:56;101334.50;;;9.17;46.41
6942;BME280;3510;43.200;27.920;2023-03-29T05:22:24;101341.78;;;9.40;46.16
6942;BME280;3510;43.200;27.920;2023-03-29T05:24:51;101347.78;;;10.12;45.24
6942;BME280;3510;43.200;27.920;2023-03-29T05:27:18;101362.91;;;9.60;45.87
6942;BME280;3510;43.200;27.920;2023-03-29T05:29:47;101339.88;;;9.47;45.76
6942;BME280;3510;43.200;27.920;2023-03-29T05:32:16;101366.28;;;10.04;45.39
6942;BME280;3510;43.200;27.920;2023-03-29T05:34:44;101365.28;;;9.84;45.50
6942;BME280;3510;43.200;27.920;2023-03-29T05:37:10;101369.69;;;10.04;45.22
6942;BME280;3510;43.200;27.920;2023-03-29T05:39:39;101370.25;;;10.36;44.72
6942;BME280;3510;43.200;27.920;2023-03-29T05:42:06;101373.53;;;10.01;44.94
6942;BME280;3510;43.200;27.920;2023-03-29T05:44:36;101370.56;;;10.05;44.50
6942;BME280;3510;43.200;27.920;2023-03-29T05:47:03;101378.13;;;10.13;44.73
6942;BME280;3510;43.200;27.920;2023-03-29T05:49:30;101366.59;;;9.55;45.56
6942;BME280;3510;43.200;27.920;2023-03-29T05:51:56;101370.59;;;9.35;45.83
6942;BME280;3510;43.200;27.920;2023-03-29T05:54:24;101353.16;;;9.45;44.72
6942;BME280;3510;43.200;27.920;2023-03-29T05:56:53;101385.50;;;9.60;44.33
6942;BME280;3510;43.200;27.920;2023-03-29T05:59:20;101406.19;;;9.49;44.12
6942;BME280;3510;43.200;27.920;2023-03-29T06:01:49;101396.59;;;9.70;44.17
6942;BME280;3510;43.200;27.920;2023-03-29T06:04:16;101367.94;;;9.42;44.02
6942;BME280;3510;43.200;27.920;2023-03-29T06:06:43;101401.34;;;9.85;43.49
6942;BME280;3510;43.200;27.920;2023-03-29T06:09:11;101380.19;;;9.74;43.68
6942;BME280;3510;43.200;27.920;2023-03-29T06:11:38;101384.75;;;10.04;43.80
6942;BME280;3510;43.200;27.920;2023-03-29T06:14:06;101399.00;;;9.69;43.97
6942;BME280;3510;43.200;27.920;2023-03-29T06:16:34;101398.38;;;10.32;43.09
6942;BME280;3510;43.200;27.920;2023-03-29T06:19:01;101406.94;;;10.17;42.54
6942;BME280;3510;43.200;27.920;2023-03-29T06:21:28;101410.16;;;10.51;42.06
6942;BME280;3510;43.200;27.920;2023-03-29T06:23:55;101411.97;;;10.34;41.88
6942;BME280;3510;43.200;27.920;2023-03-29T06:26:22;101413.75;;;10.01;43.09
6942;BME280;3510;43.200;27.920;2023-03-29T06:28:49;101421.03;;;9.98;42.49
6942;BME280;3510;43.200;27.920;2023-03-29T06:31:17;101428.38;;;10.57;41.73
6942;BME280;3510;43.200;27.920;2023-03-29T06:33:44;101431.81;;;10.40;41.77
6942;BME280;3510;43.200;27.920;2023-03-29T06:36:11;101425.63;;;10.28;41.83
6942;BME280;3510;43.200;27.920;2023-03-29T06:38:48;101426.41;;;10.63;40.67
6942;BME280;3510;43.200;27.920;2023-03-29T06:41:29;101440.75;;;10.64;40.71
6942;BME280;3510;43.200;27.920;2023-03-29T06:44:09;101431.16;;;10.60;40.45
6942;BME280;3510;43.200;27.920;2023-03-29T06:46:37;101433.28;;;10.47;40.59
6942;BME280;3510;43.200;27.920;2023-03-29T06:49:04;101365.09;;;10.35;40.19
6942;BME280;3510;43.200;27.920;2023-03-29T06:51:31;101410.31;;;10.88;40.00
6942;BME280;3510;43.200;27.920;2023-03-29T06:54:11;101444.28;;;10.83;39.90
6942;BME280;3510;43.200;27.920;2023-03-29T06:56:52;101437.91;;;10.87;39.51
6942;BME280;3510;43.200;27.920;2023-03-29T06:59:19;101433.09;;;11.54;38.52
6942;BME280;3510;43.200;27.920;2023-03-29T07:02:01;101427.59;;;11.03;39.50
6942;BME280;3510;43.200;27.920;2023-03-29T07:04:28;101433.38;;;11.02;38.99
6942;BME280;3510;43.200;27.920;2023-03-29T07:06:56;101422.16;;;10.89;39.67
6942;BME280;3510;43.200;27.920;2023-03-29T07:09:27;101420.00;;;10.75;39.44
6942;BME280;3510;43.200;27.920;2023-03-29T07:11:55;101437.41;;;11.27;38.72
6942;BME280;3510;43.200;27.920;2023-03-29T07:14:36;101435.00;;;12.32;37.18
6942;BME280;3510;43.200;27.920;2023-03-29T07:17:05;101449.56;;;11.97;37.33
6942;BME280;3510;43.200;27.920;2023-03-29T07:19:32;101422.50;;;11.85;37.52
6942;BME280;3510;43.200;27.920;2023-03-29T07:21:58;101442.16;;;12.56;36.26
6942;BME280;3510;43.200;27.920;2023-03-29T07:24:25;101417.88;;;12.09;36.68
6942;BME280;3510;43.200;27.920;2023-03-29T07:26:52;101451.56;;;13.17;35.20
6942;BME280;3510;43.200;27.920;2023-03-29T07:29:18;101446.88;;;12.62;35.33
6942;BME280;3510;43.200;27.920;2023-03-29T07:31:45;101444.56;;;12.94;36.39
6942;BME280;3510;43.200;27.920;2023-03-29T07:34:13;101396.81;;;11.24;38.05
6942;BME280;3510;43.200;27.920;2023-03-29T07:36:54;101430.56;;;11.54;37.93
6942;BME280;3510;43.200;27.920;2023-03-29T07:39:35;101338.19;;;10.89;37.67
6942;BME280;3510;43.200;27.920;2023-03-29T07:42:15;101416.34;;;12.11;37.31
6942;BME280;3510;43.200;27.920;2023-03-29T07:44:42;101460.19;;;11.84;38.31
6942;BME280;3510;43.200;27.920;2023-03-29T07:47:09;101450.72;;;12.77;36.12
6942;BME280;3510;43.200;27.920;2023-03-29T07:49:38;101447.53;;;12.41;36.59
6942;BME280;3510;43.200;27.920;2023-03-29T07:52:05;101452.09;;;12.74;35.79
6942;BME280;3510;43.200;27.920;2023-03-29T07:54:45;101452.34;;;12.77;35.12
6942;BME280;3510;43.200;27.920;2023-03-29T07:57:12;101424.28;;;13.23;34.05
6942;BME280;3510;43.200;27.920;2023-03-29T07:59:39;101428.28;;;12.91;34.49
6942;BME280;3510;43.200;27.920;2023-03-29T08:02:08;101462.22;;;13.34;33.58
6942;BME280;3510;43.200;27.920;2023-03-29T08:04:36;101435.41;;;13.56;33.27
6942;BME280;3510;43.200;27.920;2023-03-29T08:07:04;101437.13;;;13.16;33.53
6942;BME280;3510;43.200;27.920;2023-03-29T08:09:31;101399.75;;;13.73;32.65
6942;BME280;3510;43.200;27.920;2023-03-29T08:11:58;101433.91;;;13.48;33.62
6942;BME280;3510;43.200;27.920;2023-03-29T08:14:25;101448.81;;;13.86;32.67
6942;BME280;3510;43.200;27.920;2023-03-29T08:16:53;101432.75;;;13.75;32.19
6942;BME280;3510;43.200;27.920;2023-03-29T08:19:20;101411.53;;;13.52;32.65
6942;BME280;3510;43.200;27.920;2023-03-29T08:21:46;101450.16;;;13.11;33.32
6942;BME280;3510;43.200;27.920;2023-03-29T08:24:14;101421.69;;;12.93;33.02
6942;BME280;3510;43.200;27.920;2023-03-29T08:26:41;101406.81;;;13.77;31.95
6942;BME280;3510;43.200;27.920;2023-03-29T08:29:09;101446.84;;;14.14;31.50
6942;BME280;3510;43.200;27.920;2023-03-29T08:31:36;101442.69;;;14.04;31.52
6942;BME280;3510;43.200;27.920;2023-03-29T08:34:03;101465.25;;;13.70;31.54
6942;BME280;3510;43.200;27.920;2023-03-29T08:36:30;101456.03;;;14.34;30.00
6942;BME280;3510;43.200;27.920;2023-03-29T08:38:59;101446.94;;;13.83;30.58
6942;BME280;3510;43.200;27.920;2023-03-29T08:44:51;101391.03;;;14.44;29.88
6942;BME280;3510;43.200;27.920;2023-03-29T08:47:25;101453.00;;;14.27;29.88
6942;BME280;3510;43.200;27.920;2023-03-29T08:49:56;101452.63;;;14.33;30.17
6942;BME280;3510;43.200;27.920;2023-03-29T08:52:30;101450.16;;;14.45;30.30
6942;BME280;3510;43.200;27.920;2023-03-29T08:55:01;101441.47;;;14.31;30.30
6942;BME280;3510;43.200;27.920;2023-03-29T08:57:31;101449.88;;;15.28;29.97
6942;BME280;3510;43.200;27.920;2023-03-29T09:00:04;101452.81;;;15.56;28.75
6942;BME280;3510;43.200;27.920;2023-03-29T09:02:35;101452.53;;;15.41;29.42
6942;BME280;3510;43.200;27.920;2023-03-29T09:05:07;101450.25;;;15.11;29.85
6942;BME280;3510;43.200;27.920;2023-03-29T09:07:39;101451.31;;;14.38;30.50
6942;BME280;3510;43.200;27.920;2023-03-29T09:10:11;101442.44;;;14.75;29.33
6942;BME280;3510;43.200;27.920;2023-03-29T09:12:49;101450.50;;;15.25;29.18
6942;BME280;3510;43.200;27.920;2023-03-29T09:15:26;101460.44;;;16.13;28.28
6942;BME280;3510;43.200;27.920;2023-03-29T09:18:01;101457.84;;;15.90;27.97
6942;BME280;3510;43.200;27.920;2023-03-29T09:20:37;101444.06;;;15.07;29.06
6942;BME280;3510;43.200;27.920;2023-03-29T09:23:19;101450.81;;;16.33;28.49
6942;BME280;3510;43.200;27.920;2023-03-29T09:25:55;101460.09;;;15.63;29.22
6942;BME280;3510;43.200;27.920;2023-03-29T09:28:30;101451.66;;;15.41;29.67
6942;BME280;3510;43.200;27.920;2023-03-29T09:31:03;101434.06;;;15.54;29.37
6942;BME280;3510;43.200;27.920;2023-03-29T09:33:35;101440.19;;;15.46;29.73
6942;BME280;3510;43.200;27.920;2023-03-29T09:36:10;101449.31;;;14.98;31.56
6942;BME280;3510;43.200;27.920;2023-03-29T09:38:41;101436.06;;;15.24;31.15
6942;BME280;3510;43.200;27.920;2023-03-29T09:41:18;101413.63;;;15.07;31.28
6942;BME280;3510;43.200;27.920;2023-03-29T09:43:48;101450.50;;;14.60;31.34
6942;BME280;3510;43.200;27.920;2023-03-29T09:46:21;101411.66;;;14.81;31.02
6942;BME280;3510;43.200;27.920;2023-03-29T09:48:49;101417.72;;;14.83;30.80
6942;BME280;3510;43.200;27.920;2023-03-29T09:51:21;101396.38;;;14.37;30.07
6942;BME280;3510;43.200;27.920;2023-03-29T09:53:48;101441.78;;;14.56;29.27
6942;BME280;3510;43.200;27.920;2023-03-29T09:56:15;101451.66;;;14.11;30.77
6942;BME280;3510;43.200;27.920;2023-03-29T09:58:59;101458.53;;;14.54;30.09
6942;BME280;3510;43.200;27.920;2023-03-29T10:01:37;101439.59;;;15.27;29.49
6942;BME280;3510;43.200;27.920;2023-03-29T10:04:07;101462.84;;;14.35;30.37
6942;BME280;3510;43.200;27.920;2023-03-29T10:06:36;101481.09;;;12.98;30.69
6942;BME280;3510;43.200;27.920;2023-03-29T10:09:13;101469.81;;;13.44;29.83
6942;BME280;3510;43.200;27.920;2023-03-29T10:11:46;101404.97;;;13.24;29.59
6942;BME280;3510;43.200;27.920;2023-03-29T10:14:16;101432.88;;;13.56;29.45
6942;BME280;3510;43.200;27.920;2023-03-29T10:16:46;101455.25;;;13.82;29.75
6942;BME280;3510;43.200;27.920;2023-03-29T10:19:21;101444.22;;;14.44;29.11
6942;BME280;3510;43.200;27.920;2023-03-29T10:21:50;101446.88;;;14.03;26.45
6942;BME280;3510;43.200;27.920;2023-03-29T10:24:18;101435.38;;;13.87;27.38
6942;BME280;3510;43.200;27.920;2023-03-29T10:26:46;101446.31;;;13.65;27.63
6942;BME280;3510;43.200;27.920;2023-03-29T10:29:14;101446.25;;;13.96;27.32
6942;BME280;3510;43.200;27.920;2023-03-29T10:31:41;101451.41;;;14.18;27.91
6942;BME280;3510;43.200;27.920;2023-03-29T10:34:13;101450.81;;;14.00;28.39
6942;BME280;3510;43.200;27.920;2023-03-29T10:36:44;101444.53;;;14.69;27.57
6942;BME280;3510;43.200;27.920;2023-03-29T10:39:15;101437.50;;;14.55;27.96
6942;BME280;3510;43.200;27.920;2023-03-29T10:41:43;101450.47;;;14.92;26.93
6942;BME280;3510;43.200;27.920;2023-03-29T10:44:27;101453.50;;;14.76;28.34
6942;BME280;3510;43.200;27.920;2023-03-29T10:46:55;101453.91;;;14.92;27.91
6942;BME280;3510;43.200;27.920;2023-03-29T10:49:23;101453.31;;;14.10;28.79
6942;BME280;3510;43.200;27.920;2023-03-29T10:51:51;101463.97;;;13.75;29.25
6942;BME280;3510;43.200;27.920;2023-03-29T10:54:21;101454.25;;;13.49;30.63
6942;BME280;3510;43.200;27.920;2023-03-29T10:56:51;101455.63;;;13.97;29.39
6942;BME280;3510;43.200;27.920;2023-03-29T10:59:24;101465.88;;;13.68;30.32
6942;BME280;3510;43.200;27.920;2023-03-29T11:02:06;101452.09;;;14.37;28.40
6942;BME280;3510;43.200;27.920;2023-03-29T11:04:47;101439.53;;;15.70;26.91
6942;BME280;3510;43.200;27.920;2023-03-29T11:07:26;101444.53;;;14.91;26.62
6942;BME280;3510;43.200;27.920;2023-03-29T11:10:00;101434.88;;;15.65;26.38
6942;BME280;3510;43.200;27.920;2023-03-29T11:12:35;101424.00;;;15.44;26.21
6942;BME280;3510;43.200;27.920;2023-03-29T11:15:11;101441.38;;;12.47;30.83
6942;BME280;3510;43.200;27.920;2023-03-29T11:17:47;101457.13;;;11.97;32.24
6942;BME280;3510;43.200;27.920;2023-03-29T11:20:21;101473.28;;;11.99;32.62
6942;BME280;3510;43.200;27.920;2023-03-29T11:22:53;101445.88;;;11.93;34.31
6942;BME280;3510;43.200;27.920;2023-03-29T11:25:27;101453.63;;;12.05;34.28
6942;BME280;3510;43.200;27.920;2023-03-29T11:27:58;101453.28;;;12.29;32.95
6942;BME280;3510;43.200;27.920;2023-03-29T11:30:28;101439.72;;;12.77;32.28
6942;BME280;3510;43.200;27.920;2023-03-29T11:32:59;101441.16;;;13.04;29.76
6942;BME280;3510;43.200;27.920;2023-03-29T11:35:34;101444.00;;;13.38;28.75
6942;BME280;3510;43.200;27.920;2023-03-29T11:38:04;101434.31;;;13.42;28.26
6942;BME280;3510;43.200;27.920;2023-03-29T11:40:44;101430.38;;;13.36;25.94
6942;BME280;3510;43.200;27.920;2023-03-29T11:43:15;101422.41;;;14.57;26.13
6942;BME280;3510;43.200;27.920;2023-03-29T11:45:45;101438.94;;;13.78;25.64
6942;BME280;3510;43.200;27.920;2023-03-29T11:48:16;101419.41;;;14.40;24.06
6942;BME280;3510;43.200;27.920;2023-03-29T11:50:47;101431.75;;;14.25;24.14
6942;BME280;3510;43.200;27.920;2023-03-29T11:53:18;101425.09;;;15.02;24.39
6942;BME280;3510;43.200;27.920;2023-03-29T11:55:46;101411.81;;;14.94;24.49
6942;BME280;3510;43.200;27.920;2023-03-29T11:58:17;101417.13;;;15.77;23.78
6942;BME280;3510;43.200;27.920;2023-03-29T12:00:47;101429.59;;;15.73;24.31
6942;BME280;3510;43.200;27.920;2023-03-29T12:03:17;101438.19;;;15.76;24.47
6942;BME280;3510;43.200;27.920;2023-03-29T12:05:48;101427.41;;;14.35;26.36
6942;BME280;3510;43.200;27.920;2023-03-29T12:08:17;101430.50;;;14.85;26.85
6942;BME280;3510;43.200;27.920;2023-03-29T12:10:47;101430.09;;;13.84;27.20
6942;BME280;3510;43.200;27.920;2023-03-29T12:13:16;101422.44;;;15.12;26.15
6942;BME280;3510;43.200;27.920;2023-03-29T12:15:44;101400.09;;;14.85;26.75
6942;BME280;3510;43.200;27.920;2023-03-29T12:18:15;101406.22;;;14.44;27.51
6942;BME280;3510;43.200;27.920;2023-03-29T12:20:42;101407.25;;;14.04;25.99
6942;BME280;3510;43.200;27.920;2023-03-29T12:23:18;101423.53;;;14.28;26.99
6942;BME280;3510;43.200;27.920;2023-03-29T12:25:48;101423.13;;;13.71;26.45
6942;BME280;3510;43.200;27.920;2023-03-29T12:28:22;101429.25;;;14.05;27.28
6942;BME280;3510;43.200;27.920;2023-03-29T12:30:59;101392.84;;;13.40;29.71
6942;BME280;3510;43.200;27.920;2023-03-29T12:33:40;101424.19;;;14.47;27.30
6942;BME280;3510;43.200;27.920;2023-03-29T12:36:19;101436.19;;;14.28;27.08
6942;BME280;3510;43.200;27.920;2023-03-29T12:38:58;101397.16;;;14.68;25.77
6942;BME280;3510;43.200;27.920;2023-03-29T12:41:26;101399.44;;;14.65;25.45
6942;BME280;3510;43.200;27.920;2023-03-29T12:43:59;101430.66;;;14.12;28.42
6942;BME280;3510;43.200;27.920;2023-03-29T12:46:31;101468.91;;;13.33;34.72
6942;BME280;3510;43.200;27.920;2023-03-29T12:49:02;101437.25;;;14.52;34.58
6942;BME280;3510;43.200;27.920;2023-03-29T12:51:38;101408.72;;;14.22;35.16
6942;BME280;3510;43.200;27.920;2023-03-29T12:54:12;101494.09;;;12.63;37.61
6942;BME280;3510;43.200;27.920;2023-03-29T12:56:52;101419.63;;;12.78;36.36
6942;BME280;3510;43.200;27.920;2023-03-29T12:59:25;101491.88;;;12.47;38.24
6942;BME280;3510;43.200;27.920;2023-03-29T13:02:00;101475.13;;;11.08;42.33
6942;BME280;3510;43.200;27.920;2023-03-29T13:04:38;101521.78;;;10.25;44.99
6942;BME280;3510;43.200;27.920;2023-03-29T13:07:26;101541.47;;;10.47;46.89
6942;BME280;3510;43.200;27.920;2023-03-29T13:09:56;101552.56;;;10.31;47.36
6942;BME280;3510;43.200;27.920;2023-03-29T13:12:25;101565.97;;;10.23;48.79
6942;BME280;3510;43.200;27.920;2023-03-29T13:14:55;101562.47;;;9.70;49.16
6942;BME280;3510;43.200;27.920;2023-03-29T13:17:26;101595.00;;;9.69;50.40
6942;BME280;3510;43.200;27.920;2023-03-29T13:20:11;101566.63;;;9.79;50.00
6942;BME280;3510;43.200;27.920;2023-03-29T13:22:51;101529.06;;;10.31;48.43